Legend Of The Seas — C6SL5 — position and weather

sailwx.info

Track history (hours):
 
Tides and Currents Weather Stations Pressure Air Temp Water Temp Dewpoint Dewpoint Depression Visibility Wind Speed Wind Dir Waves Ship Positions

Legend Of The Seas

Operator: Royal Caribbean Cruises Ltd

Last reported at 2020-Sep-10 03:25 UTC. Time now 2020-Sep-18 08:27 UTC.
Position N 44°05' E 015°15'.
Warning: this ship's position is 8 days out of date.

Type: Passenger vessel. MMSI: 311378000.

Date/timePositionNaut miles runAvg speedWind from/ knotsBaromVisibWave heightAir tempDewpointWater temp
2020-Sep-10 03:25N 44°05' E 015°15'0 0.0
2020-Sep-10 01:28N 44°05' E 015°15'  
2020-Sep-07 08:02N 44°14' E 014°60'011.4
2020-Sep-07 08:00N 44°14' E 014°59'2610.4
2020-Sep-07 05:30N 44°21' E 014°24'611.4
2020-Sep-07 05:00N 44°15' E 014°24'1211.5
2020-Sep-07 04:00N 44°05' E 014°30'2511.8
2020-Sep-07 01:55N 43°43' E 014°47'2912.0
2020-Sep-06 23:31N 43°18' E 015°07'111.4
2020-Sep-06 23:28N 43°18' E 015°07'2911.8
2020-Sep-06 21:00N 42°54' E 015°30'21211.5
2020-Sep-06 02:31N 40°21' E 018°46'011.0
2020-Sep-06 02:30N 40°21' E 018°46'19810.3
2020-Sep-05 07:18N 37°34' E 016°29'1610.7
2020-Sep-05 05:49N 37°22' E 016°16'1410.6
2020-Sep-05 04:28N 37°10' E 016°05'8510.6
2020-Sep-04 20:30N 36°05' E 014°58'9 0.3
2020-Sep-03 10:00N 35°58' E 014°51'0 0.0
2020-Sep-03 08:00N 35°58' E 014°51'0 0.0
2020-Sep-03 07:27N 35°58' E 014°51'  
Track history (hours):
 
Tides and Currents Weather Stations Pressure Air Temp Water Temp Dewpoint Dewpoint Depression Visibility Wind Speed Wind Dir Waves Ship Positions

Legend Of The Seas

Operator: Royal Caribbean Cruises Ltd

Last reported at 2020-Sep-10 03:25 UTC. Time now 2020-Sep-18 08:27 UTC.
Position N 44°05' E 015°15'.
Warning: this ship's position is 8 days out of date.

Type: Passenger vessel. MMSI: 311378000.

Date/timePositionNaut miles runAvg speedWind from/ knotsBaromVisibWave heightAir tempDewpointWater temp
2020-Sep-10 03:25N 44°05' E 015°15'0 0.0
2020-Sep-10 01:28N 44°05' E 015°15'  
2020-Sep-07 08:02N 44°14' E 014°60'011.4
2020-Sep-07 08:00N 44°14' E 014°59'2610.4
2020-Sep-07 05:30N 44°21' E 014°24'611.4
2020-Sep-07 05:00N 44°15' E 014°24'1211.5
2020-Sep-07 04:00N 44°05' E 014°30'2511.8
2020-Sep-07 01:55N 43°43' E 014°47'2912.0
2020-Sep-06 23:31N 43°18' E 015°07'111.4
2020-Sep-06 23:28N 43°18' E 015°07'2911.8
2020-Sep-06 21:00N 42°54' E 015°30'21211.5
2020-Sep-06 02:31N 40°21' E 018°46'011.0
2020-Sep-06 02:30N 40°21' E 018°46'19810.3
2020-Sep-05 07:18N 37°34' E 016°29'1610.7
2020-Sep-05 05:49N 37°22' E 016°16'1410.6
2020-Sep-05 04:28N 37°10' E 016°05'8510.6
2020-Sep-04 20:30N 36°05' E 014°58'9 0.3
2020-Sep-03 10:00N 35°58' E 014°51'0 0.0
2020-Sep-03 08:00N 35°58' E 014°51'0 0.0
2020-Sep-03 07:27N 35°58' E 014°51'  

Dump ship's entire track history